createdAt,value
2023-01-09T00:00:36.778Z,992.57
2023-01-09T00:01:36.973Z,992.56
2023-01-09T00:02:36.767Z,992.59
2023-01-09T00:03:36.993Z,992.54
2023-01-09T00:04:36.724Z,992.49
2023-01-09T00:05:56.972Z,992.61
2023-01-09T00:06:36.706Z,992.61
2023-01-09T00:07:36.940Z,992.61
2023-01-09T00:08:36.708Z,992.58
2023-01-09T00:09:36.943Z,992.58
2023-01-09T00:10:36.704Z,992.56
2023-01-09T00:11:36.947Z,992.65
2023-01-09T00:12:36.707Z,992.66
2023-01-09T00:13:36.924Z,992.60
2023-01-09T00:14:36.692Z,992.60
2023-01-09T00:15:56.932Z,992.63
2023-01-09T00:16:36.709Z,992.61
2023-01-09T00:17:36.920Z,992.63
2023-01-09T00:18:36.690Z,992.65
2023-01-09T00:19:36.941Z,992.64
2023-01-09T00:20:36.675Z,992.70
2023-01-09T00:21:36.917Z,992.70
2023-01-09T00:22:36.672Z,992.66
2023-01-09T00:23:36.402Z,992.69
2023-01-09T00:24:36.675Z,992.70
2023-01-09T00:25:56.910Z,992.67
2023-01-09T00:26:36.666Z,992.68
2023-01-09T00:27:36.402Z,992.72
2023-01-09T00:28:36.677Z,992.69
2023-01-09T00:29:36.412Z,992.72
2023-01-09T00:30:36.717Z,992.75
2023-01-09T00:31:36.401Z,992.75
2023-01-09T00:32:36.667Z,992.71
2023-01-09T00:33:36.419Z,992.74
2023-01-09T00:34:36.659Z,992.68
2023-01-09T00:35:56.412Z,992.76
2023-01-09T00:36:36.652Z,992.73
2023-01-09T00:37:36.388Z,992.73
2023-01-09T00:38:36.656Z,992.79
2023-01-09T00:39:36.387Z,992.82
2023-01-09T00:40:36.637Z,992.83
2023-01-09T00:41:36.365Z,992.90
2023-01-09T00:42:36.652Z,992.87
2023-01-09T00:43:36.361Z,992.82
2023-01-09T00:44:36.603Z,992.88
2023-01-09T00:45:56.411Z,992.86
2023-01-09T00:46:36.617Z,992.82
2023-01-09T00:47:36.366Z,992.83
2023-01-09T00:48:36.613Z,992.84
2023-01-09T00:49:36.351Z,992.82
2023-01-09T00:50:36.612Z,992.86
2023-01-09T00:51:37.816Z,992.84
2023-01-09T00:52:36.614Z,992.81
2023-01-09T00:53:36.383Z,992.80
2023-01-09T00:54:36.125Z,992.83
2023-01-09T00:55:56.393Z,992.81
2023-01-09T00:56:36.113Z,992.83
2023-01-09T00:57:36.362Z,992.86
2023-01-09T00:58:36.117Z,992.89
2023-01-09T00:59:36.377Z,992.91
2023-01-09T01:00:36.113Z,992.90
2023-01-09T01:01:36.540Z,992.86
2023-01-09T01:02:36.127Z,992.90
2023-01-09T01:03:36.376Z,992.88
2023-01-09T01:04:36.126Z,992.89
2023-01-09T01:05:56.391Z,992.88
2023-01-09T01:06:36.106Z,992.88
2023-01-09T01:07:36.364Z,992.92
2023-01-09T01:08:36.098Z,992.94
2023-01-09T01:09:36.344Z,992.93
2023-01-09T01:10:36.097Z,993.01
2023-01-09T01:11:36.351Z,992.92
2023-01-09T01:12:36.097Z,992.92
2023-01-09T01:13:36.348Z,992.87
2023-01-09T01:14:36.100Z,993.00
2023-01-09T01:15:56.365Z,992.99
2023-01-09T01:16:36.132Z,993.00
2023-01-09T01:17:36.345Z,993.00
2023-01-09T01:18:36.100Z,993.05
2023-01-09T01:19:36.347Z,993.05
2023-01-09T01:20:36.077Z,993.08
2023-01-09T01:21:36.337Z,993.07
2023-01-09T01:22:36.071Z,993.04
2023-01-09T01:23:35.835Z,993.03
2023-01-09T01:24:36.082Z,993.14
2023-01-09T01:25:56.338Z,993.05
2023-01-09T01:26:36.059Z,993.05
2023-01-09T01:27:35.819Z,993.04
2023-01-09T01:28:36.063Z,993.08
2023-01-09T01:29:35.815Z,993.05
2023-01-09T01:30:36.080Z,993.05
2023-01-09T01:31:35.813Z,993.07
2023-01-09T01:32:36.043Z,993.03
2023-01-09T01:33:35.791Z,993.08
2023-01-09T01:34:36.041Z,993.00
2023-01-09T01:35:55.794Z,993.03
2023-01-09T01:36:36.035Z,993.06
2023-01-09T01:37:35.759Z,993.11
2023-01-09T01:38:36.019Z,993.10
2023-01-09T01:39:35.751Z,993.11
2023-01-09T01:40:36.010Z,993.14
2023-01-09T01:41:35.752Z,993.18
2023-01-09T01:42:36.006Z,993.17
2023-01-09T01:43:35.750Z,993.18
2023-01-09T01:44:36.025Z,993.15
2023-01-09T01:45:55.831Z,993.20
2023-01-09T01:46:36.011Z,993.22
2023-01-09T01:47:35.729Z,993.25
2023-01-09T01:48:35.984Z,993.26
2023-01-09T01:49:35.715Z,993.25
2023-01-09T01:50:35.995Z,993.22
2023-01-09T01:51:35.722Z,993.25
2023-01-09T01:52:35.977Z,993.22
2023-01-09T01:53:35.735Z,993.24
2023-01-09T01:54:35.967Z,993.22
2023-01-09T01:55:55.737Z,993.27
2023-01-09T01:56:35.967Z,993.29
2023-01-09T01:57:35.703Z,993.22
2023-01-09T01:58:35.975Z,993.23
2023-01-09T01:59:35.714Z,993.23
2023-01-09T02:00:35.467Z,993.23
2023-01-09T02:01:37.270Z,993.23
2023-01-09T02:02:35.558Z,993.23
2023-01-09T02:03:35.708Z,993.24
2023-01-09T02:04:35.465Z,993.21
2023-01-09T02:05:55.751Z,993.25
2023-01-09T02:06:35.474Z,993.26
2023-01-09T02:07:35.724Z,993.26
2023-01-09T02:08:35.537Z,993.31
2023-01-09T02:09:35.755Z,993.34
2023-01-09T02:10:35.522Z,993.31
2023-01-09T02:11:36.778Z,993.30
2023-01-09T02:12:35.544Z,993.32
2023-01-09T02:13:35.794Z,993.27
2023-01-09T02:14:35.539Z,993.28
2023-01-09T02:15:55.817Z,993.36
2023-01-09T02:16:35.543Z,993.33
2023-01-09T02:17:35.772Z,993.35
2023-01-09T02:18:35.537Z,993.38
2023-01-09T02:19:35.779Z,993.35
2023-01-09T02:20:35.542Z,993.33
2023-01-09T02:21:36.283Z,993.34
2023-01-09T02:22:36.985Z,993.31
2023-01-09T02:23:35.297Z,993.31
2023-01-09T02:24:35.550Z,993.28
2023-01-09T02:25:55.310Z,993.27
2023-01-09T02:26:35.553Z,993.27
2023-01-09T02:27:35.283Z,993.27
2023-01-09T02:28:35.556Z,993.26
2023-01-09T02:29:36.292Z,993.27
2023-01-09T02:30:35.558Z,993.30
2023-01-09T02:31:35.347Z,993.23
2023-01-09T02:32:35.544Z,993.18
2023-01-09T02:33:36.277Z,993.22
2023-01-09T02:34:35.558Z,993.19
2023-01-09T02:35:55.291Z,993.21
2023-01-09T02:36:35.541Z,993.18
2023-01-09T02:37:35.273Z,993.18
2023-01-09T02:38:35.538Z,993.13
2023-01-09T02:39:35.300Z,993.14
2023-01-09T02:40:35.540Z,993.12
2023-01-09T02:41:35.306Z,993.13
2023-01-09T02:42:35.555Z,993.15
2023-01-09T02:43:35.307Z,993.14
2023-01-09T02:44:35.054Z,993.14
2023-01-09T02:45:55.378Z,993.14
2023-01-09T02:46:37.570Z,993.15
2023-01-09T02:47:35.315Z,993.14
2023-01-09T02:48:35.094Z,993.17
2023-01-09T02:49:35.341Z,993.14
2023-01-09T02:50:35.104Z,993.14
2023-01-09T02:51:35.339Z,993.14
2023-01-09T02:52:35.103Z,993.14
2023-01-09T02:53:35.345Z,993.15
2023-01-09T02:54:35.123Z,993.15
2023-01-09T02:55:55.582Z,993.14
2023-01-09T02:56:35.101Z,993.07
2023-01-09T02:57:35.347Z,993.11
2023-01-09T02:58:35.134Z,993.08
2023-01-09T02:59:35.870Z,993.06
2023-01-09T03:00:35.134Z,993.07
2023-01-09T03:01:35.290Z,993.06
2023-01-09T03:02:35.189Z,993.01
2023-01-09T03:03:34.885Z,993.07
2023-01-09T03:04:35.145Z,993.02
2023-01-09T03:05:54.926Z,992.97
2023-01-09T03:06:35.135Z,992.99
2023-01-09T03:07:34.924Z,993.00
2023-01-09T03:08:35.167Z,992.95
2023-01-09T03:09:34.895Z,992.91
2023-01-09T03:10:35.181Z,992.96
2023-01-09T03:11:34.920Z,992.95
2023-01-09T03:12:35.184Z,992.94
2023-01-09T03:13:34.939Z,992.92
2023-01-09T03:14:35.197Z,992.98
2023-01-09T03:15:54.994Z,992.99
2023-01-09T03:16:34.770Z,993.02
2023-01-09T03:17:35.062Z,993.04
2023-01-09T03:18:34.829Z,993.10
2023-01-09T03:19:35.123Z,993.12
2023-01-09T03:20:34.893Z,993.09
2023-01-09T03:21:36.591Z,993.13
2023-01-09T03:22:34.963Z,993.13
2023-01-09T03:23:34.693Z,993.14
2023-01-09T03:24:35.019Z,993.14
2023-01-09T03:25:54.809Z,993.14
2023-01-09T03:26:35.125Z,993.17
2023-01-09T03:27:36.825Z,993.10
2023-01-09T03:28:34.663Z,993.20
2023-01-09T03:29:34.933Z,993.17
2023-01-09T03:30:34.784Z,993.18
2023-01-09T03:31:35.112Z,993.21
2023-01-09T03:32:34.845Z,993.19
2023-01-09T03:33:34.754Z,993.18
2023-01-09T03:34:34.877Z,993.15
2023-01-09T03:35:54.697Z,993.15
2023-01-09T03:36:34.964Z,993.18
2023-01-09T03:37:35.422Z,993.16
2023-01-09T03:38:34.537Z,993.20
2023-01-09T03:39:34.866Z,993.22
2023-01-09T03:40:34.853Z,993.18
2023-01-09T03:41:34.958Z,993.17
2023-01-09T03:42:34.724Z,993.24
2023-01-09T03:43:34.489Z,993.19
2023-01-09T03:44:34.763Z,993.30
2023-01-09T03:45:55.170Z,993.27
2023-01-09T03:46:34.788Z,993.25
2023-01-09T03:47:34.609Z,993.25
2023-01-09T03:48:35.554Z,993.28
2023-01-09T03:49:34.680Z,993.28
2023-01-09T03:50:34.481Z,993.27
2023-01-09T03:51:34.758Z,993.21
2023-01-09T03:52:35.500Z,993.22
2023-01-09T03:53:34.880Z,993.17
2023-01-09T03:54:34.584Z,993.26
2023-01-09T03:55:54.845Z,993.25
2023-01-09T03:56:34.558Z,993.22
2023-01-09T03:57:34.818Z,993.21
2023-01-09T03:58:34.570Z,993.23
2023-01-09T03:59:34.323Z,993.27
2023-01-09T04:00:34.569Z,993.31
2023-01-09T04:01:34.396Z,993.28
2023-01-09T04:02:34.573Z,993.30
2023-01-09T04:03:34.333Z,993.32
2023-01-09T04:04:34.556Z,993.30
2023-01-09T04:05:54.320Z,993.31
2023-01-09T04:06:36.001Z,993.32
2023-01-09T04:07:35.023Z,993.30
2023-01-09T04:08:34.577Z,993.27
2023-01-09T04:09:34.339Z,993.27
2023-01-09T04:10:34.608Z,993.24
2023-01-09T04:11:34.377Z,993.24
2023-01-09T04:12:36.072Z,993.17
2023-01-09T04:13:34.392Z,993.26
2023-01-09T04:14:34.636Z,993.25
2023-01-09T04:15:55.864Z,993.27
2023-01-09T04:16:34.200Z,993.27
2023-01-09T04:17:34.404Z,993.26
2023-01-09T04:18:34.157Z,993.27
2023-01-09T04:19:35.853Z,993.30
2023-01-09T04:20:34.160Z,993.33
2023-01-09T04:21:34.430Z,993.31
2023-01-09T04:22:34.614Z,993.35
2023-01-09T04:23:34.444Z,993.32
2023-01-09T04:24:35.675Z,993.30
2023-01-09T04:25:54.466Z,993.31
2023-01-09T04:26:34.189Z,993.29
2023-01-09T04:27:35.882Z,993.30
2023-01-09T04:28:34.181Z,993.30
2023-01-09T04:29:34.432Z,993.37
2023-01-09T04:30:34.180Z,993.33
2023-01-09T04:31:34.513Z,993.37
2023-01-09T04:32:35.633Z,993.31
2023-01-09T04:33:35.147Z,993.33
2023-01-09T04:34:34.241Z,993.30
2023-01-09T04:35:54.493Z,993.27
2023-01-09T04:36:34.226Z,993.23
2023-01-09T04:37:34.006Z,993.25
2023-01-09T04:38:34.232Z,993.26
2023-01-09T04:39:33.999Z,993.28
2023-01-09T04:40:34.236Z,993.23
2023-01-09T04:41:33.994Z,993.32
2023-01-09T04:42:34.244Z,993.34
2023-01-09T04:43:34.020Z,993.29
2023-01-09T04:44:34.272Z,993.29
2023-01-09T04:45:54.838Z,993.30
2023-01-09T04:46:34.270Z,993.30
2023-01-09T04:47:34.039Z,993.31
2023-01-09T04:48:34.274Z,993.35
2023-01-09T04:49:34.039Z,993.33
2023-01-09T04:50:34.276Z,993.29
2023-01-09T04:51:34.033Z,993.34
2023-01-09T04:52:33.768Z,993.31
2023-01-09T04:53:34.024Z,993.29
2023-01-09T04:54:33.784Z,993.24
2023-01-09T04:55:54.070Z,993.23
2023-01-09T04:56:33.789Z,993.22
2023-01-09T04:57:34.097Z,993.21
2023-01-09T04:58:34.059Z,993.22
2023-01-09T04:59:35.539Z,993.20
2023-01-09T05:00:33.808Z,993.21
2023-01-09T05:01:34.243Z,993.22
2023-01-09T05:02:35.283Z,993.24
2023-01-09T05:03:35.552Z,993.21
2023-01-09T05:04:33.891Z,993.23
2023-01-09T05:05:54.119Z,993.22
2023-01-09T05:06:33.857Z,993.19
2023-01-09T05:07:34.107Z,993.21
2023-01-09T05:08:34.823Z,993.20
2023-01-09T05:09:35.565Z,993.23
2023-01-09T05:10:33.889Z,993.22
2023-01-09T05:11:35.081Z,993.13
2023-01-09T05:12:34.627Z,993.18
2023-01-09T05:13:33.666Z,993.13
2023-01-09T05:14:35.375Z,993.15
2023-01-09T05:15:54.319Z,993.16
2023-01-09T05:16:33.973Z,993.19
2023-01-09T05:17:33.671Z,993.17
2023-01-09T05:18:35.400Z,993.17
2023-01-09T05:19:35.155Z,993.15
2023-01-09T05:20:35.431Z,993.16
2023-01-09T05:21:34.230Z,993.17
2023-01-09T05:22:33.530Z,993.21
2023-01-09T05:23:34.169Z,993.19
2023-01-09T05:24:34.513Z,993.18
2023-01-09T05:25:53.846Z,993.16
2023-01-09T05:26:33.572Z,993.19
2023-01-09T05:27:34.256Z,993.21
2023-01-09T05:28:33.593Z,993.23
2023-01-09T05:29:33.814Z,993.23
2023-01-09T05:30:33.580Z,993.24
2023-01-09T05:31:33.848Z,993.21
2023-01-09T05:32:33.608Z,993.20
2023-01-09T05:33:33.848Z,993.11
2023-01-09T05:34:33.632Z,993.18
2023-01-09T05:35:53.408Z,993.14
2023-01-09T05:36:33.635Z,993.19
2023-01-09T05:37:34.836Z,993.15
2023-01-09T05:38:34.298Z,993.14
2023-01-09T05:39:33.429Z,993.09
2023-01-09T05:40:40.175Z,993.09
2023-01-09T05:41:34.427Z,993.15
2023-01-09T05:42:34.633Z,993.04
2023-01-09T05:43:33.449Z,993.11
2023-01-09T05:44:34.364Z,993.08
2023-01-09T05:45:53.602Z,993.05
2023-01-09T05:46:34.760Z,993.01
2023-01-09T05:47:35.098Z,993.06
2023-01-09T05:48:34.860Z,993.03
2023-01-09T05:49:35.132Z,992.98
2023-01-09T05:50:34.932Z,993.08
2023-01-09T05:51:34.224Z,993.03
2023-01-09T05:52:35.017Z,993.05
2023-01-09T05:53:34.808Z,993.04
2023-01-09T05:54:35.078Z,993.03
2023-01-09T05:55:53.411Z,993.03
2023-01-09T05:56:33.159Z,993.07
2023-01-09T05:57:33.396Z,993.08
2023-01-09T05:58:33.150Z,993.06
2023-01-09T05:59:33.432Z,993.05
2023-01-09T06:00:33.184Z,993.04
2023-01-09T06:01:33.491Z,993.04
2023-01-09T06:02:33.301Z,993.07
2023-01-09T06:03:33.457Z,993.04
2023-01-09T06:04:33.205Z,992.96
2023-01-09T06:05:53.471Z,992.96
2023-01-09T06:06:33.217Z,992.96
2023-01-09T06:07:33.489Z,992.94
2023-01-09T06:08:33.246Z,992.98
2023-01-09T06:09:33.508Z,992.96
2023-01-09T06:10:32.501Z,992.96
2023-01-09T06:11:32.487Z,992.91
2023-01-09T06:12:32.494Z,992.86
2023-01-09T06:13:32.479Z,992.93
2023-01-09T06:14:32.456Z,992.86
2023-01-09T06:15:54.114Z,992.86
2023-01-09T06:16:32.438Z,992.84
2023-01-09T06:17:32.436Z,992.81
2023-01-09T06:18:32.440Z,992.75
2023-01-09T06:19:32.442Z,992.76
2023-01-09T06:20:32.405Z,992.77
2023-01-09T06:21:32.414Z,992.72
2023-01-09T06:22:32.373Z,992.73
2023-01-09T06:23:32.400Z,992.78
2023-01-09T06:24:32.381Z,992.78
2023-01-09T06:25:53.851Z,992.82
2023-01-09T06:26:32.935Z,992.88
2023-01-09T06:27:33.219Z,992.85
2023-01-09T06:28:32.946Z,992.84
2023-01-09T06:29:33.203Z,992.85
2023-01-09T06:30:32.945Z,992.78
2023-01-09T06:31:33.312Z,992.77
2023-01-09T06:32:32.954Z,992.81
2023-01-09T06:33:33.221Z,992.84
2023-01-09T06:34:32.957Z,992.88
2023-01-09T06:35:53.891Z,992.96
2023-01-09T06:36:33.009Z,992.89
2023-01-09T06:37:32.748Z,992.79
2023-01-09T06:38:32.988Z,992.89
2023-01-09T06:39:32.760Z,992.95
2023-01-09T06:40:33.000Z,992.94
2023-01-09T06:41:32.784Z,992.85
2023-01-09T06:42:33.031Z,992.91
2023-01-09T06:43:32.794Z,992.91
2023-01-09T06:44:33.101Z,992.99
2023-01-09T06:45:54.282Z,993.03
2023-01-09T06:46:33.089Z,992.97
2023-01-09T06:47:32.810Z,992.98
2023-01-09T06:48:33.046Z,993.01
2023-01-09T06:49:34.374Z,993.01
2023-01-09T06:50:34.203Z,993.09
2023-01-09T06:51:34.484Z,993.06
2023-01-09T06:52:33.502Z,992.99
2023-01-09T06:53:33.385Z,993.04
2023-01-09T06:54:34.437Z,993.12
2023-01-09T06:55:52.782Z,993.12
2023-01-09T06:56:34.499Z,993.11
2023-01-09T06:57:34.315Z,993.10
2023-01-09T06:58:34.099Z,993.12
2023-01-09T06:59:32.398Z,993.15
2023-01-09T07:00:33.478Z,993.09
2023-01-09T07:01:32.825Z,993.16
2023-01-09T07:02:33.485Z,993.18
2023-01-09T07:03:33.865Z,993.19
2023-01-09T07:04:33.475Z,993.20
2023-01-09T07:05:52.067Z,993.32
2023-01-09T07:06:33.438Z,993.25
2023-01-09T07:07:33.448Z,993.30
2023-01-09T07:08:34.275Z,993.27
2023-01-09T07:09:33.415Z,993.27
2023-01-09T07:10:32.627Z,993.36
2023-01-09T07:11:32.422Z,993.35
2023-01-09T07:12:33.367Z,993.29
2023-01-09T07:13:33.373Z,993.35
2023-01-09T07:14:33.352Z,993.34
2023-01-09T07:15:52.027Z,993.37
2023-01-09T07:16:33.324Z,993.43
2023-01-09T07:17:32.394Z,993.41
2023-01-09T07:18:33.302Z,993.41
2023-01-09T07:19:32.519Z,993.49
2023-01-09T07:20:33.346Z,993.51
2023-01-09T07:21:33.365Z,993.52
2023-01-09T07:22:32.410Z,993.57
2023-01-09T07:23:33.352Z,993.58
2023-01-09T07:24:32.775Z,993.50
2023-01-09T07:25:52.607Z,993.57
2023-01-09T07:26:33.792Z,993.59
2023-01-09T07:27:34.127Z,993.57
2023-01-09T07:28:32.937Z,993.54
2023-01-09T07:29:34.192Z,993.62
2023-01-09T07:30:33.977Z,993.56
2023-01-09T07:31:33.823Z,993.64
2023-01-09T07:32:34.085Z,993.62
2023-01-09T07:33:32.922Z,993.69
2023-01-09T07:34:33.677Z,993.70
2023-01-09T07:35:52.492Z,993.69
2023-01-09T07:36:33.782Z,993.68
2023-01-09T07:37:34.116Z,993.72
2023-01-09T07:38:34.096Z,993.74
2023-01-09T07:39:33.690Z,993.79
2023-01-09T07:40:34.089Z,993.76
2023-01-09T07:41:33.930Z,993.81
2023-01-09T07:42:33.761Z,993.77
2023-01-09T07:43:33.533Z,993.81
2023-01-09T07:44:33.742Z,993.78
2023-01-09T07:45:52.183Z,993.88
2023-01-09T07:46:34.016Z,993.85
2023-01-09T07:47:32.916Z,993.87
2023-01-09T07:48:33.999Z,993.94
2023-01-09T07:49:33.810Z,993.90
2023-01-09T07:50:32.946Z,993.90
2023-01-09T07:51:33.441Z,993.95
2023-01-09T07:52:33.755Z,993.94
2023-01-09T07:53:32.399Z,993.87
2023-01-09T07:54:34.048Z,993.89
2023-01-09T07:55:53.824Z,994.07
2023-01-09T07:56:33.638Z,994.01
2023-01-09T07:57:33.415Z,994.02
2023-01-09T07:58:33.715Z,993.96
2023-01-09T07:59:33.561Z,994.02
2023-01-09T08:00:33.449Z,993.99
2023-01-09T08:01:32.957Z,994.00
2023-01-09T08:02:33.614Z,994.02
2023-01-09T08:03:32.465Z,994.06
2023-01-09T08:04:33.649Z,994.01
2023-01-09T08:05:52.054Z,994.06
2023-01-09T08:06:32.956Z,994.08
2023-01-09T08:07:33.528Z,994.09
2023-01-09T08:08:32.182Z,994.12
2023-01-09T08:09:33.821Z,994.16
2023-01-09T08:10:33.134Z,994.09
2023-01-09T08:11:33.477Z,994.20
2023-01-09T08:12:32.942Z,994.14
2023-01-09T08:13:33.614Z,994.12
2023-01-09T08:14:32.603Z,994.12
2023-01-09T08:15:52.239Z,994.17
2023-01-09T08:16:33.444Z,994.22
2023-01-09T08:17:32.476Z,994.21
2023-01-09T08:18:32.439Z,994.23
2023-01-09T08:19:33.395Z,994.18
2023-01-09T08:20:33.270Z,994.21
2023-01-09T08:21:33.031Z,994.24
2023-01-09T08:22:33.388Z,994.26
2023-01-09T08:23:33.177Z,994.27
2023-01-09T08:24:32.561Z,994.35
2023-01-09T08:25:51.887Z,994.38
2023-01-09T08:26:33.135Z,994.44
2023-01-09T08:27:32.700Z,994.34
2023-01-09T08:28:33.290Z,994.44
2023-01-09T08:29:33.573Z,994.42
2023-01-09T08:30:32.456Z,994.46
2023-01-09T08:31:33.283Z,994.50
2023-01-09T08:32:33.535Z,994.53
2023-01-09T08:33:33.449Z,994.57
2023-01-09T08:34:33.240Z,994.57
2023-01-09T08:35:52.049Z,994.57
2023-01-09T08:36:33.238Z,994.59
2023-01-09T08:37:33.517Z,994.60
2023-01-09T08:38:33.373Z,994.81
2023-01-09T08:39:32.365Z,994.65
2023-01-09T08:40:33.027Z,994.69
2023-01-09T08:41:32.468Z,994.76
2023-01-09T08:42:33.154Z,994.75
2023-01-09T08:43:33.443Z,994.74
2023-01-09T08:44:33.273Z,994.69
2023-01-09T08:45:51.582Z,994.71
2023-01-09T08:46:34.836Z,994.76
2023-01-09T08:47:32.471Z,994.78
2023-01-09T08:48:32.997Z,994.82
2023-01-09T08:49:32.833Z,994.82
2023-01-09T08:50:32.655Z,994.83
2023-01-09T08:51:32.928Z,994.82
2023-01-09T08:52:33.199Z,994.91
2023-01-09T08:53:32.527Z,994.88
2023-01-09T08:54:32.546Z,994.92
2023-01-09T08:55:51.735Z,994.95
2023-01-09T08:56:32.969Z,995.00
2023-01-09T08:57:33.321Z,994.98
2023-01-09T08:58:33.099Z,995.02
2023-01-09T08:59:32.395Z,995.02
2023-01-09T09:00:33.205Z,995.02
2023-01-09T09:01:33.033Z,995.10
2023-01-09T09:02:32.936Z,995.07
2023-01-09T09:03:33.138Z,995.08
2023-01-09T09:04:33.037Z,995.11
2023-01-09T09:05:51.810Z,995.10
2023-01-09T09:06:31.639Z,995.17
2023-01-09T09:07:32.336Z,995.16
2023-01-09T09:08:33.139Z,995.17
2023-01-09T09:09:32.165Z,995.17
2023-01-09T09:10:32.780Z,995.17
2023-01-09T09:11:31.704Z,995.28
2023-01-09T09:12:33.035Z,995.24
2023-01-09T09:13:32.820Z,995.29
2023-01-09T09:14:33.160Z,995.28
2023-01-09T09:15:51.509Z,995.27
2023-01-09T09:16:31.995Z,995.33
2023-01-09T09:17:32.978Z,995.33
2023-01-09T09:18:32.826Z,995.35
2023-01-09T09:19:32.744Z,995.36
2023-01-09T09:20:32.995Z,995.37
2023-01-09T09:21:32.794Z,995.35
2023-01-09T09:22:32.003Z,995.37
2023-01-09T09:23:32.927Z,995.40
2023-01-09T09:24:32.686Z,995.46
2023-01-09T09:25:51.519Z,995.38
2023-01-09T09:26:32.742Z,995.53
2023-01-09T09:27:32.011Z,995.53
2023-01-09T09:28:31.576Z,995.48
2023-01-09T09:29:32.788Z,995.52
2023-01-09T09:30:32.600Z,995.56
2023-01-09T09:31:32.978Z,995.57
2023-01-09T09:32:32.216Z,995.51
2023-01-09T09:33:31.995Z,995.54
2023-01-09T09:34:32.027Z,995.53
2023-01-09T09:35:51.181Z,995.56
2023-01-09T09:36:33.014Z,995.62
2023-01-09T09:37:32.692Z,995.68
2023-01-09T09:38:31.991Z,995.65
2023-01-09T09:39:32.006Z,995.68
2023-01-09T09:40:32.584Z,995.66
2023-01-09T09:41:32.968Z,995.68
2023-01-09T09:42:32.321Z,995.67
2023-01-09T09:43:32.619Z,995.77
2023-01-09T09:44:32.473Z,995.77
2023-01-09T09:45:51.359Z,995.83
2023-01-09T09:46:31.198Z,995.87
2023-01-09T09:47:31.847Z,995.88
2023-01-09T09:48:32.652Z,995.89
2023-01-09T09:49:32.521Z,995.94
2023-01-09T09:50:32.393Z,995.96
2023-01-09T09:51:32.005Z,995.94
2023-01-09T09:52:32.494Z,995.99
2023-01-09T09:53:32.273Z,996.02
2023-01-09T09:54:32.605Z,996.08
2023-01-09T09:55:50.948Z,996.11
2023-01-09T09:56:31.508Z,996.16
2023-01-09T09:57:31.502Z,996.15
2023-01-09T09:58:31.094Z,996.21
2023-01-09T09:59:32.724Z,996.31
2023-01-09T10:00:32.567Z,996.27
2023-01-09T10:01:32.375Z,996.32
2023-01-09T10:02:32.692Z,996.38
2023-01-09T10:03:34.191Z,996.31
2023-01-09T10:04:31.760Z,996.38
2023-01-09T10:05:51.064Z,996.43
2023-01-09T10:06:32.285Z,996.43
2023-01-09T10:07:32.565Z,996.45
2023-01-09T10:08:32.355Z,996.47
2023-01-09T10:09:31.522Z,996.42
2023-01-09T10:10:32.459Z,996.48
2023-01-09T10:11:32.286Z,996.47
2023-01-09T10:12:32.589Z,996.48
2023-01-09T10:13:32.605Z,996.52
2023-01-09T10:14:32.376Z,996.54
2023-01-09T10:15:50.680Z,996.55
2023-01-09T10:16:31.060Z,996.61
2023-01-09T10:17:30.777Z,996.58
2023-01-09T10:18:32.501Z,996.60
2023-01-09T10:19:32.265Z,996.66
2023-01-09T10:20:32.126Z,996.67
2023-01-09T10:21:31.052Z,996.74
2023-01-09T10:22:32.264Z,996.71
2023-01-09T10:23:31.284Z,996.68
2023-01-09T10:24:31.876Z,996.69
2023-01-09T10:25:50.709Z,996.72
2023-01-09T10:26:32.412Z,996.66
2023-01-09T10:27:31.527Z,996.67
2023-01-09T10:28:31.514Z,996.72
2023-01-09T10:29:32.368Z,996.74
2023-01-09T10:30:32.267Z,996.75
2023-01-09T10:31:32.174Z,996.80
2023-01-09T10:32:31.901Z,996.79
2023-01-09T10:33:32.187Z,996.72
2023-01-09T10:34:31.502Z,996.74
2023-01-09T10:35:50.808Z,996.80
2023-01-09T10:36:31.598Z,996.79
2023-01-09T10:37:31.099Z,996.82
2023-01-09T10:38:30.828Z,996.82
2023-01-09T10:39:31.023Z,996.83
2023-01-09T10:40:31.824Z,996.88
2023-01-09T10:41:30.714Z,996.91
2023-01-09T10:42:31.923Z,996.88
2023-01-09T10:43:32.183Z,996.93
2023-01-09T10:44:30.544Z,996.88
2023-01-09T10:45:50.808Z,996.97
2023-01-09T10:46:32.049Z,996.93
2023-01-09T10:47:31.877Z,996.97
2023-01-09T10:48:32.186Z,996.98
2023-01-09T10:49:31.173Z,996.96
2023-01-09T10:50:31.760Z,997.04
2023-01-09T10:51:31.036Z,997.03
2023-01-09T10:52:32.006Z,997.02
2023-01-09T10:53:31.786Z,997.03
2023-01-09T10:54:32.103Z,997.10
2023-01-09T10:55:50.427Z,997.04
2023-01-09T10:56:31.049Z,997.10
2023-01-09T10:57:31.176Z,997.07
2023-01-09T10:58:31.769Z,997.07
2023-01-09T10:59:32.053Z,997.06
2023-01-09T11:00:31.955Z,997.15
2023-01-09T11:01:31.731Z,997.11
2023-01-09T11:02:31.069Z,997.09
2023-01-09T11:03:31.484Z,997.13
2023-01-09T11:04:31.751Z,997.13
2023-01-09T11:05:50.556Z,997.20
2023-01-09T11:06:31.833Z,997.19
2023-01-09T11:07:31.047Z,997.18
2023-01-09T11:08:32.024Z,997.24
2023-01-09T11:09:31.802Z,997.21
2023-01-09T11:10:31.661Z,997.17
2023-01-09T11:11:31.127Z,997.27
2023-01-09T11:12:31.731Z,997.23
2023-01-09T11:13:31.510Z,997.20
2023-01-09T11:14:31.834Z,997.22
2023-01-09T11:15:50.197Z,997.29
2023-01-09T11:16:32.029Z,997.24
2023-01-09T11:17:31.739Z,997.22
2023-01-09T11:18:31.551Z,997.26
2023-01-09T11:19:31.064Z,997.27
2023-01-09T11:20:31.721Z,997.27
2023-01-09T11:21:31.562Z,997.32
2023-01-09T11:22:31.380Z,997.28
2023-01-09T11:23:31.713Z,997.32
2023-01-09T11:24:30.569Z,997.28
2023-01-09T11:25:50.351Z,997.31
2023-01-09T11:26:31.559Z,997.27
2023-01-09T11:27:31.347Z,997.32
2023-01-09T11:28:31.658Z,997.31
2023-01-09T11:29:31.454Z,997.29
2023-01-09T11:30:31.752Z,997.28
2023-01-09T11:31:30.235Z,997.31
2023-01-09T11:32:31.433Z,997.26
2023-01-09T11:33:31.710Z,997.33
2023-01-09T11:34:31.523Z,997.32
2023-01-09T11:35:49.832Z,997.32
2023-01-09T11:36:31.619Z,997.34
2023-01-09T11:37:30.594Z,997.29
2023-01-09T11:38:31.230Z,997.30
2023-01-09T11:39:31.054Z,997.32
2023-01-09T11:40:30.564Z,997.38
2023-01-09T11:41:31.154Z,997.39
2023-01-09T11:42:31.452Z,997.39
2023-01-09T11:43:31.251Z,997.45
2023-01-09T11:44:31.525Z,997.47
2023-01-09T11:46:00.241Z,997.46
2023-01-09T11:46:32.617Z,997.52
2023-01-09T11:47:31.593Z,997.50
2023-01-09T11:48:30.574Z,997.59
2023-01-09T11:49:31.186Z,997.53
2023-01-09T11:50:31.561Z,997.51
2023-01-09T11:51:31.389Z,997.56
2023-01-09T11:52:30.651Z,997.55
2023-01-09T11:53:30.661Z,997.54
2023-01-09T11:54:31.261Z,997.58
2023-01-09T11:55:49.594Z,997.53
2023-01-09T11:56:29.946Z,997.52
2023-01-09T11:57:31.116Z,997.44
2023-01-09T11:58:31.398Z,997.50
2023-01-09T11:59:31.207Z,997.44
2023-01-09T12:00:29.589Z,997.44
2023-01-09T12:01:31.299Z,997.43
2023-01-09T12:02:29.943Z,997.46
2023-01-09T12:03:30.995Z,997.51
2023-01-09T12:04:30.506Z,997.50
2023-01-09T12:05:49.600Z,997.51
2023-01-09T12:06:31.379Z,997.46
2023-01-09T12:07:30.780Z,997.46
2023-01-09T12:08:31.018Z,997.48
2023-01-09T12:09:31.374Z,997.39
2023-01-09T12:10:31.160Z,997.47
2023-01-09T12:11:30.092Z,997.47
2023-01-09T12:12:31.304Z,997.53
2023-01-09T12:13:30.332Z,997.49
2023-01-09T12:14:30.923Z,997.52
2023-01-09T12:15:49.766Z,997.56
2023-01-09T12:16:30.980Z,997.55
2023-01-09T12:17:30.107Z,997.64
2023-01-09T12:18:30.634Z,997.67
2023-01-09T12:19:30.927Z,997.64
2023-01-09T12:20:31.246Z,997.63
2023-01-09T12:21:31.068Z,997.61
2023-01-09T12:22:30.103Z,997.60
2023-01-09T12:23:31.226Z,997.57
2023-01-09T12:24:30.569Z,997.57
2023-01-09T12:25:49.335Z,997.63
2023-01-09T12:26:30.542Z,997.63
2023-01-09T12:27:30.826Z,997.67
2023-01-09T12:28:30.104Z,997.67